Detalii statie AGROMEC VLAD TEPES [00001989]

Toti senzorii

Date Temperatura solului [C]Precipitatii [mm]Voltaj baterie [mV]Leaf Wetness [Min]HC Air temperature [C]HC Relative humidity [%]Punctul de roua [C]
medieminmaxsumaultimatimpmedieminmaxmediemediemin
2018-10-20 16:00:00 18.5 18.2 19.7 0 7246 19.83 19.54 19.99 59.14 11.4 11.1
2018-10-20 17:00:00 18.5 18.5 18.7 0 6816 18.67 18.09 19.47 61.44 10.9 10.6
2018-10-20 18:00:00 18.6 18.4 19.9 0 6708 16.71 15.96 17.67 71.16 11.3 10.7
2018-10-20 19:00:00 18.2 17.9 18.5 0.4 6640 15.14 14.69 15.7 84.03 12.3 11.7
2018-10-20 20:00:00 18 17.8 18.2 0 6590 14.41 14.21 14.71 100 14.3 14.2
2018-10-20 21:00:00 18 17.6 19.3 0 6572 14.17 13.86 14.42 100 14.1 13.8
2018-10-20 22:00:00 17.5 17.5 17.7 0 6582 14.09 13.87 14.55 92.38 12.7 11.3
2018-10-20 23:00:00 17.3 17.2 17.6 0 6552 14.2 13.97 14.45 78.84 10.4 9.9
2018-10-21 00:00:00 17 17 17.3 0 6572 14.14 13.7 14.28 76.61 9.9 9.8
2018-10-21 01:00:00 16.9 15.9 18.4 0 6542 13.52 13.47 13.73 79.02 9.7 9.6
2018-10-21 02:00:00 16.7 16.5 18 0 6542 13.56 13.23 13.83 77.89 9.6 9.5
2018-10-21 03:00:00 16.5 16.4 16.7 0 6562 13.62 13.46 13.79 83.36 10.7 9.9
2018-10-21 04:00:00 16.4 16.3 16.5 0 6552 13.51 13.37 13.59 88.99 11.6 11.3
2018-10-21 05:00:00 16.3 16.3 16.6 0 6522 12.52 11.93 13.28 95.01 11.6 11.3
2018-10-21 06:00:00 16.1 15.9 16.3 0 6532 11.16 10.56 11.77 99.82 11 10.5
2018-10-21 07:00:00 16 15.8 16.2 0 6532 10.86 10.22 11.84 99.9 10.7 10.2
2018-10-21 08:00:00 15.9 15.7 17.2 0 6718 12.23 11.94 12.62 95.92 11.4 11.3
2018-10-21 09:00:00 15.8 15.7 17.2 0 7070 13.77 12.85 14.59 87.7 11.6 11.3
2018-10-21 10:00:00 15.8 15.7 16 0 7264 14.87 14.39 15.18 78.73 11 10.7
2018-10-21 11:00:00 16 15.8 16.3 0 7108 15.97 15.37 16.61 72.74 10.9 10.7
2018-10-21 12:00:00 16.6 16.3 17.8 0 7254 17.32 16.79 17.72 67.06 11 10.8
2018-10-21 13:00:00 17.2 16.8 18.5 0 7000 18.18 17.81 18.6 61.75 10.5 10.4
2018-10-21 14:00:00 17.6 17.3 17.9 0 7246 18.56 18.36 18.97 58.94 10.2 9.9
2018-10-21 15:00:00 18 17.8 18.2 0 7254 18.16 17.91 18.44 59.89 10 9.8
2018-10-21 16:00:00 18.2 18 19.6 0 7060 17.73 17.46 17.98 61.22 10 9.8
2018-10-21 17:00:00 18.3 18 19.6 0 6786 16.88 16.19 17.37 63.03 9.6 9.5
2018-10-21 18:00:00 18 17.9 18.2 0 6698 15.45 14.6 16.16 67.62 9.3 9
2018-10-21 19:00:00 17.8 17.7 18.1 0 6620 13.7 13.2 14.4 73.75 8.9 8.9
2018-10-21 20:00:00 17.6 17.5 19 0 6600 12.84 12.38 13.24 77.8 8.9 8.6
2018-10-21 21:00:00 17.3 17.2 17.6 0 6562 12.06 11.84 12.34 77.78 8.2 7.9
2018-10-21 22:00:00 17 16.9 17.2 0 6552 11.91 11.79 12.11 76.43 7.8 7.6
2018-10-21 23:00:00 16.7 16.6 17 0 6572 11.98 11.63 12.17 73.47 7.2 7
2018-10-22 00:00:00 16.5 16.3 16.7 0 6542 11.54 11.38 11.77 74.3 6.9 6.8
2018-10-22 01:00:00 16.2 15.3 16.5 0 6532 11.34 10.82 11.82 74.73 6.8 6.7
2018-10-22 02:00:00 16.1 15.9 16.3 0 6552 10.34 10.15 10.63 79.42 6.7 6.7
2018-10-22 03:00:00 15.9 15.7 17.2 0 6542 10.19 10.04 10.59 79.55 6.6 6.5
2018-10-22 04:00:00 15.6 15.6 15.8 0 6512 10.82 10.11 11.36 77.24 6.8 6.6
2018-10-22 05:00:00 15.5 15.4 15.7 0 6532 11.35 11.07 11.43 74.62 6.8 6.6
2018-10-22 06:00:00 15.6 15.3 17 0 6502 10.08 9.29 10.86 82.78 7.1 6.9
2018-10-22 07:00:00 15.3 15.1 15.4 0 6502 8.69 8.37 9.12 91.39 7.2 7.1
2018-10-22 08:00:00 15.1 15 15.3 0 6914 9.05 8.29 10.25 88.78 7.1 6.9
2018-10-22 09:00:00 15 14.8 16.3 0 7254 11.52 10.48 12.59 72.13 6.5 6.3
2018-10-22 10:00:00 14.9 14.9 15.1 0 7166 13.67 12.69 14.87 61.08 6.1 5.7
2018-10-22 11:00:00 15.3 15 16.7 0 7274 15.34 14.72 15.71 49.16 4.5 4
2018-10-22 12:00:00 16.1 15.4 17.6 0 7226 16.14 15.78 16.7 46.23 4.4 3.9
2018-10-22 13:00:00 16.5 16.1 18 0 7010 16.91 16.51 17.26 41.97 3.6 3.2
2018-10-22 14:00:00 17 16.7 18.3 0 7246 17.22 16.92 17.66 41.89 3.9 3.4
2018-10-22 15:00:00 17.4 17.2 17.6 0 6952 17.14 16.97 17.35 41.89 3.9 3.8